sensor_id;sensor_type;location;lat;lon;timestamp;P1;durP1;ratioP1;P2;durP2;ratioP2
37201;SDS011;37799;52.390;6.136;2024-03-07T00:01:47;25.27;;;10.80;;
37201;SDS011;37799;52.390;6.136;2024-03-07T00:04:12;28.60;;;11.05;;
37201;SDS011;37799;52.390;6.136;2024-03-07T00:06:38;30.42;;;11.40;;
37201;SDS011;37799;52.390;6.136;2024-03-07T00:09:03;27.00;;;10.70;;
37201;SDS011;37799;52.390;6.136;2024-03-07T00:11:28;29.52;;;11.38;;
37201;SDS011;37799;52.390;6.136;2024-03-07T00:13:55;32.95;;;10.93;;
37201;SDS011;37799;52.390;6.136;2024-03-07T00:16:20;27.10;;;11.30;;
37201;SDS011;37799;52.390;6.136;2024-03-07T00:18:46;31.77;;;12.35;;
37201;SDS011;37799;52.390;6.136;2024-03-07T00:21:11;29.95;;;11.52;;
37201;SDS011;37799;52.390;6.136;2024-03-07T00:23:37;30.10;;;11.35;;
37201;SDS011;37799;52.390;6.136;2024-03-07T00:26:03;30.55;;;11.90;;
37201;SDS011;37799;52.390;6.136;2024-03-07T00:28:29;26.23;;;10.52;;
37201;SDS011;37799;52.390;6.136;2024-03-07T00:30:57;31.77;;;11.93;;
37201;SDS011;37799;52.390;6.136;2024-03-07T00:33:23;31.15;;;11.38;;
37201;SDS011;37799;52.390;6.136;2024-03-07T00:35:48;29.70;;;10.07;;
37201;SDS011;37799;52.390;6.136;2024-03-07T00:38:14;26.42;;;10.15;;
37201;SDS011;37799;52.390;6.136;2024-03-07T00:40:39;25.70;;;10.02;;
37201;SDS011;37799;52.390;6.136;2024-03-07T00:43:05;29.55;;;10.52;;
37201;SDS011;37799;52.390;6.136;2024-03-07T00:45:31;27.25;;;11.63;;
37201;SDS011;37799;52.390;6.136;2024-03-07T00:47:57;31.67;;;11.57;;
37201;SDS011;37799;52.390;6.136;2024-03-07T00:50:23;34.40;;;11.50;;
37201;SDS011;37799;52.390;6.136;2024-03-07T00:52:49;27.15;;;10.40;;
37201;SDS011;37799;52.390;6.136;2024-03-07T00:55:15;29.85;;;10.60;;
37201;SDS011;37799;52.390;6.136;2024-03-07T00:57:40;32.28;;;12.30;;
37201;SDS011;37799;52.390;6.136;2024-03-07T01:00:06;32.35;;;12.82;;
37201;SDS011;37799;52.390;6.136;2024-03-07T01:02:39;28.60;;;12.05;;
37201;SDS011;37799;52.390;6.136;2024-03-07T01:05:11;32.42;;;11.98;;
37201;SDS011;37799;52.390;6.136;2024-03-07T01:07:38;31.13;;;11.82;;
37201;SDS011;37799;52.390;6.136;2024-03-07T01:10:04;31.08;;;12.38;;
37201;SDS011;37799;52.390;6.136;2024-03-07T01:12:31;29.60;;;11.35;;
37201;SDS011;37799;52.390;6.136;2024-03-07T01:14:56;31.17;;;12.23;;
37201;SDS011;37799;52.390;6.136;2024-03-07T01:17:22;30.92;;;10.93;;
37201;SDS011;37799;52.390;6.136;2024-03-07T01:19:49;30.63;;;11.82;;
37201;SDS011;37799;52.390;6.136;2024-03-07T01:22:14;27.88;;;11.88;;
37201;SDS011;37799;52.390;6.136;2024-03-07T01:24:40;35.28;;;13.73;;
37201;SDS011;37799;52.390;6.136;2024-03-07T01:27:05;34.30;;;12.73;;
37201;SDS011;37799;52.390;6.136;2024-03-07T01:29:30;31.23;;;12.10;;
37201;SDS011;37799;52.390;6.136;2024-03-07T01:31:56;30.50;;;11.45;;
37201;SDS011;37799;52.390;6.136;2024-03-07T01:34:21;27.60;;;11.20;;
37201;SDS011;37799;52.390;6.136;2024-03-07T01:36:46;29.67;;;11.77;;
37201;SDS011;37799;52.390;6.136;2024-03-07T01:39:12;31.17;;;11.32;;
37201;SDS011;37799;52.390;6.136;2024-03-07T01:41:37;31.88;;;10.52;;
37201;SDS011;37799;52.390;6.136;2024-03-07T01:44:03;26.88;;;11.05;;
37201;SDS011;37799;52.390;6.136;2024-03-07T01:46:28;26.83;;;10.60;;
37201;SDS011;37799;52.390;6.136;2024-03-07T01:48:54;29.70;;;10.60;;
37201;SDS011;37799;52.390;6.136;2024-03-07T01:51:20;27.38;;;10.52;;
37201;SDS011;37799;52.390;6.136;2024-03-07T01:53:46;25.35;;;10.50;;
37201;SDS011;37799;52.390;6.136;2024-03-07T01:56:12;26.58;;;10.18;;
37201;SDS011;37799;52.390;6.136;2024-03-07T01:58:37;25.08;;;9.95;;
37201;SDS011;37799;52.390;6.136;2024-03-07T02:01:03;28.05;;;10.40;;
37201;SDS011;37799;52.390;6.136;2024-03-07T02:03:28;26.67;;;10.68;;
37201;SDS011;37799;52.390;6.136;2024-03-07T02:05:53;28.75;;;9.75;;
37201;SDS011;37799;52.390;6.136;2024-03-07T02:08:19;26.25;;;10.38;;
37201;SDS011;37799;52.390;6.136;2024-03-07T02:10:44;24.38;;;9.98;;
37201;SDS011;37799;52.390;6.136;2024-03-07T02:13:11;25.88;;;10.15;;
37201;SDS011;37799;52.390;6.136;2024-03-07T02:15:36;25.42;;;9.90;;
37201;SDS011;37799;52.390;6.136;2024-03-07T02:18:01;22.15;;;9.38;;
37201;SDS011;37799;52.390;6.136;2024-03-07T02:20:27;24.65;;;9.90;;
37201;SDS011;37799;52.390;6.136;2024-03-07T02:22:53;22.83;;;9.20;;
37201;SDS011;37799;52.390;6.136;2024-03-07T02:25:19;27.73;;;9.95;;
37201;SDS011;37799;52.390;6.136;2024-03-07T02:27:44;23.60;;;9.55;;
37201;SDS011;37799;52.390;6.136;2024-03-07T02:30:10;24.60;;;9.70;;
37201;SDS011;37799;52.390;6.136;2024-03-07T02:32:37;28.17;;;10.20;;
37201;SDS011;37799;52.390;6.136;2024-03-07T02:35:03;27.88;;;10.38;;
37201;SDS011;37799;52.390;6.136;2024-03-07T02:37:29;29.75;;;10.60;;
37201;SDS011;37799;52.390;6.136;2024-03-07T02:39:55;29.38;;;11.60;;
37201;SDS011;37799;52.390;6.136;2024-03-07T02:42:20;30.30;;;12.10;;
37201;SDS011;37799;52.390;6.136;2024-03-07T02:44:46;27.88;;;10.77;;
37201;SDS011;37799;52.390;6.136;2024-03-07T02:47:11;28.00;;;11.93;;
37201;SDS011;37799;52.390;6.136;2024-03-07T02:49:36;30.80;;;12.07;;
37201;SDS011;37799;52.390;6.136;2024-03-07T02:52:02;32.10;;;11.82;;
37201;SDS011;37799;52.390;6.136;2024-03-07T02:54:31;27.67;;;11.68;;
37201;SDS011;37799;52.390;6.136;2024-03-07T02:56:57;29.48;;;11.93;;
37201;SDS011;37799;52.390;6.136;2024-03-07T02:59:22;35.63;;;12.77;;
37201;SDS011;37799;52.390;6.136;2024-03-07T03:01:48;35.03;;;13.52;;
37201;SDS011;37799;52.390;6.136;2024-03-07T03:04:13;32.03;;;12.63;;
37201;SDS011;37799;52.390;6.136;2024-03-07T03:06:39;33.50;;;12.75;;
37201;SDS011;37799;52.390;6.136;2024-03-07T03:09:04;37.40;;;13.48;;
37201;SDS011;37799;52.390;6.136;2024-03-07T03:11:30;38.05;;;13.57;;
37201;SDS011;37799;52.390;6.136;2024-03-07T03:13:55;37.22;;;12.85;;
37201;SDS011;37799;52.390;6.136;2024-03-07T03:16:21;35.78;;;14.63;;
37201;SDS011;37799;52.390;6.136;2024-03-07T03:18:46;35.63;;;13.85;;
37201;SDS011;37799;52.390;6.136;2024-03-07T03:21:13;38.75;;;13.73;;
37201;SDS011;37799;52.390;6.136;2024-03-07T03:23:40;34.10;;;12.95;;
37201;SDS011;37799;52.390;6.136;2024-03-07T03:26:05;36.53;;;15.27;;
37201;SDS011;37799;52.390;6.136;2024-03-07T03:28:31;36.53;;;13.48;;
37201;SDS011;37799;52.390;6.136;2024-03-07T03:30:56;38.00;;;14.73;;
37201;SDS011;37799;52.390;6.136;2024-03-07T03:33:22;32.25;;;13.27;;
37201;SDS011;37799;52.390;6.136;2024-03-07T03:35:47;35.60;;;13.90;;
37201;SDS011;37799;52.390;6.136;2024-03-07T03:38:13;42.00;;;14.13;;
37201;SDS011;37799;52.390;6.136;2024-03-07T03:40:38;40.75;;;16.15;;
37201;SDS011;37799;52.390;6.136;2024-03-07T03:43:04;36.40;;;13.70;;
37201;SDS011;37799;52.390;6.136;2024-03-07T03:45:29;38.05;;;13.98;;
37201;SDS011;37799;52.390;6.136;2024-03-07T03:47:57;36.17;;;14.15;;
37201;SDS011;37799;52.390;6.136;2024-03-07T03:50:22;38.60;;;13.90;;
37201;SDS011;37799;52.390;6.136;2024-03-07T03:52:50;33.88;;;13.50;;
37201;SDS011;37799;52.390;6.136;2024-03-07T03:55:16;35.80;;;14.35;;
37201;SDS011;37799;52.390;6.136;2024-03-07T03:57:42;33.42;;;13.27;;
37201;SDS011;37799;52.390;6.136;2024-03-07T04:00:09;34.10;;;14.48;;
37201;SDS011;37799;52.390;6.136;2024-03-07T04:02:39;33.85;;;13.25;;
37201;SDS011;37799;52.390;6.136;2024-03-07T04:05:05;36.67;;;14.68;;
37201;SDS011;37799;52.390;6.136;2024-03-07T04:07:30;32.85;;;13.68;;
37201;SDS011;37799;52.390;6.136;2024-03-07T04:09:58;33.35;;;13.65;;
37201;SDS011;37799;52.390;6.136;2024-03-07T04:12:24;33.38;;;13.30;;
37201;SDS011;37799;52.390;6.136;2024-03-07T04:14:51;30.90;;;13.70;;
37201;SDS011;37799;52.390;6.136;2024-03-07T04:17:16;34.50;;;13.23;;
37201;SDS011;37799;52.390;6.136;2024-03-07T04:19:42;32.78;;;12.65;;
37201;SDS011;37799;52.390;6.136;2024-03-07T04:22:08;32.25;;;12.88;;
37201;SDS011;37799;52.390;6.136;2024-03-07T04:24:34;33.55;;;13.82;;
37201;SDS011;37799;52.390;6.136;2024-03-07T04:27:00;34.17;;;13.35;;
37201;SDS011;37799;52.390;6.136;2024-03-07T04:29:29;32.00;;;12.77;;
37201;SDS011;37799;52.390;6.136;2024-03-07T04:31:55;35.40;;;13.82;;
37201;SDS011;37799;52.390;6.136;2024-03-07T04:34:21;32.70;;;13.43;;
37201;SDS011;37799;52.390;6.136;2024-03-07T04:36:46;33.33;;;13.18;;
37201;SDS011;37799;52.390;6.136;2024-03-07T04:39:11;30.48;;;12.93;;
37201;SDS011;37799;52.390;6.136;2024-03-07T04:41:47;34.42;;;12.93;;
37201;SDS011;37799;52.390;6.136;2024-03-07T04:44:13;32.70;;;14.45;;
37201;SDS011;37799;52.390;6.136;2024-03-07T04:46:38;30.13;;;12.40;;
37201;SDS011;37799;52.390;6.136;2024-03-07T04:49:07;28.50;;;12.02;;
37201;SDS011;37799;52.390;6.136;2024-03-07T04:51:33;30.17;;;11.82;;
37201;SDS011;37799;52.390;6.136;2024-03-07T04:53:58;28.60;;;12.38;;
37201;SDS011;37799;52.390;6.136;2024-03-07T04:56:23;32.38;;;12.65;;
37201;SDS011;37799;52.390;6.136;2024-03-07T04:58:48;33.10;;;12.40;;
37201;SDS011;37799;52.390;6.136;2024-03-07T05:01:15;32.58;;;11.65;;
37201;SDS011;37799;52.390;6.136;2024-03-07T05:03:40;26.42;;;11.15;;
37201;SDS011;37799;52.390;6.136;2024-03-07T05:06:05;31.67;;;12.82;;
37201;SDS011;37799;52.390;6.136;2024-03-07T05:08:31;26.80;;;11.40;;
37201;SDS011;37799;52.390;6.136;2024-03-07T05:10:57;27.23;;;11.13;;
37201;SDS011;37799;52.390;6.136;2024-03-07T05:13:22;24.50;;;9.10;;
37201;SDS011;37799;52.390;6.136;2024-03-07T05:15:48;26.77;;;8.90;;
37201;SDS011;37799;52.390;6.136;2024-03-07T05:18:15;24.48;;;9.27;;
37201;SDS011;37799;52.390;6.136;2024-03-07T05:20:41;23.60;;;9.27;;
37201;SDS011;37799;52.390;6.136;2024-03-07T05:23:07;23.95;;;8.98;;
37201;SDS011;37799;52.390;6.136;2024-03-07T05:25:32;20.77;;;7.93;;
37201;SDS011;37799;52.390;6.136;2024-03-07T05:27:58;29.23;;;9.85;;
37201;SDS011;37799;52.390;6.136;2024-03-07T05:30:24;24.42;;;9.15;;
37201;SDS011;37799;52.390;6.136;2024-03-07T05:32:50;24.83;;;9.35;;
37201;SDS011;37799;52.390;6.136;2024-03-07T05:35:16;25.92;;;9.55;;
37201;SDS011;37799;52.390;6.136;2024-03-07T05:37:41;21.90;;;8.18;;
37201;SDS011;37799;52.390;6.136;2024-03-07T05:40:11;21.75;;;8.63;;
37201;SDS011;37799;52.390;6.136;2024-03-07T05:42:37;23.70;;;8.38;;
37201;SDS011;37799;52.390;6.136;2024-03-07T05:45:02;24.95;;;9.25;;
37201;SDS011;37799;52.390;6.136;2024-03-07T05:47:28;21.30;;;7.57;;
37201;SDS011;37799;52.390;6.136;2024-03-07T05:49:53;21.65;;;7.93;;
37201;SDS011;37799;52.390;6.136;2024-03-07T05:52:18;23.30;;;8.15;;
37201;SDS011;37799;52.390;6.136;2024-03-07T05:54:43;19.23;;;7.38;;
37201;SDS011;37799;52.390;6.136;2024-03-07T05:57:09;26.55;;;11.32;;
37201;SDS011;37799;52.390;6.136;2024-03-07T05:59:35;27.10;;;11.55;;
37201;SDS011;37799;52.390;6.136;2024-03-07T06:02:00;31.80;;;12.77;;
37201;SDS011;37799;52.390;6.136;2024-03-07T06:04:26;24.80;;;9.95;;
37201;SDS011;37799;52.390;6.136;2024-03-07T06:06:51;28.40;;;11.00;;
37201;SDS011;37799;52.390;6.136;2024-03-07T06:09:16;25.55;;;10.25;;
37201;SDS011;37799;52.390;6.136;2024-03-07T06:11:46;27.05;;;10.20;;
37201;SDS011;37799;52.390;6.136;2024-03-07T06:14:12;27.88;;;10.50;;
37201;SDS011;37799;52.390;6.136;2024-03-07T06:16:38;28.27;;;10.43;;
37201;SDS011;37799;52.390;6.136;2024-03-07T06:19:05;23.95;;;10.70;;
37201;SDS011;37799;52.390;6.136;2024-03-07T06:21:34;24.98;;;11.40;;
37201;SDS011;37799;52.390;6.136;2024-03-07T06:24:01;25.73;;;10.68;;
37201;SDS011;37799;52.390;6.136;2024-03-07T06:26:28;28.55;;;11.25;;
37201;SDS011;37799;52.390;6.136;2024-03-07T06:29:09;25.83;;;10.48;;
37201;SDS011;37799;52.390;6.136;2024-03-07T06:31:36;27.48;;;10.20;;
37201;SDS011;37799;52.390;6.136;2024-03-07T06:34:02;26.83;;;10.77;;
37201;SDS011;37799;52.390;6.136;2024-03-07T06:36:28;30.23;;;11.13;;
37201;SDS011;37799;52.390;6.136;2024-03-07T06:38:53;26.13;;;11.20;;
37201;SDS011;37799;52.390;6.136;2024-03-07T06:41:19;23.40;;;10.13;;
37201;SDS011;37799;52.390;6.136;2024-03-07T06:43:45;27.38;;;11.23;;
37201;SDS011;37799;52.390;6.136;2024-03-07T06:46:10;27.02;;;10.75;;
37201;SDS011;37799;52.390;6.136;2024-03-07T06:48:37;25.08;;;10.60;;
37201;SDS011;37799;52.390;6.136;2024-03-07T06:51:05;27.83;;;10.95;;
37201;SDS011;37799;52.390;6.136;2024-03-07T06:53:30;28.50;;;10.77;;
37201;SDS011;37799;52.390;6.136;2024-03-07T06:55:56;25.13;;;10.95;;
37201;SDS011;37799;52.390;6.136;2024-03-07T06:58:21;27.88;;;9.38;;
37201;SDS011;37799;52.390;6.136;2024-03-07T07:00:46;27.60;;;11.90;;
37201;SDS011;37799;52.390;6.136;2024-03-07T07:03:12;30.75;;;11.40;;
37201;SDS011;37799;52.390;6.136;2024-03-07T07:05:39;24.73;;;10.38;;
37201;SDS011;37799;52.390;6.136;2024-03-07T07:08:06;26.42;;;10.85;;
37201;SDS011;37799;52.390;6.136;2024-03-07T07:10:31;25.67;;;10.55;;
37201;SDS011;37799;52.390;6.136;2024-03-07T07:12:57;29.10;;;11.48;;
37201;SDS011;37799;52.390;6.136;2024-03-07T07:15:22;26.90;;;10.70;;
37201;SDS011;37799;52.390;6.136;2024-03-07T07:17:48;26.75;;;11.00;;
37201;SDS011;37799;52.390;6.136;2024-03-07T07:20:17;23.17;;;9.90;;
37201;SDS011;37799;52.390;6.136;2024-03-07T07:22:44;30.73;;;10.82;;
37201;SDS011;37799;52.390;6.136;2024-03-07T07:25:12;28.20;;;12.48;;
37201;SDS011;37799;52.390;6.136;2024-03-07T07:27:40;27.00;;;10.68;;
37201;SDS011;37799;52.390;6.136;2024-03-07T07:30:07;26.05;;;10.95;;
37201;SDS011;37799;52.390;6.136;2024-03-07T07:32:34;27.90;;;11.55;;
37201;SDS011;37799;52.390;6.136;2024-03-07T07:35:00;32.58;;;12.88;;
37201;SDS011;37799;52.390;6.136;2024-03-07T07:37:26;32.05;;;13.27;;
37201;SDS011;37799;52.390;6.136;2024-03-07T07:39:51;37.22;;;14.50;;
37201;SDS011;37799;52.390;6.136;2024-03-07T07:42:16;39.03;;;14.18;;
37201;SDS011;37799;52.390;6.136;2024-03-07T07:44:41;44.30;;;16.92;;
37201;SDS011;37799;52.390;6.136;2024-03-07T07:47:08;44.28;;;17.23;;
37201;SDS011;37799;52.390;6.136;2024-03-07T07:49:33;45.53;;;18.27;;
37201;SDS011;37799;52.390;6.136;2024-03-07T07:51:59;48.03;;;18.90;;
37201;SDS011;37799;52.390;6.136;2024-03-07T07:54:25;51.80;;;18.85;;
37201;SDS011;37799;52.390;6.136;2024-03-07T07:56:50;48.80;;;19.15;;
37201;SDS011;37799;52.390;6.136;2024-03-07T07:59:16;50.78;;;19.58;;
37201;SDS011;37799;52.390;6.136;2024-03-07T08:01:41;45.40;;;18.90;;
37201;SDS011;37799;52.390;6.136;2024-03-07T08:04:07;48.60;;;18.65;;
37201;SDS011;37799;52.390;6.136;2024-03-07T08:06:34;40.97;;;17.17;;
37201;SDS011;37799;52.390;6.136;2024-03-07T08:09:00;34.92;;;14.63;;
37201;SDS011;37799;52.390;6.136;2024-03-07T08:11:25;21.65;;;10.13;;
37201;SDS011;37799;52.390;6.136;2024-03-07T08:13:51;29.10;;;11.00;;
37201;SDS011;37799;52.390;6.136;2024-03-07T08:16:16;18.40;;;8.27;;
37201;SDS011;37799;52.390;6.136;2024-03-07T08:18:42;16.83;;;8.18;;
37201;SDS011;37799;52.390;6.136;2024-03-07T08:21:07;18.30;;;7.72;;
37201;SDS011;37799;52.390;6.136;2024-03-07T08:23:35;20.00;;;7.93;;
37201;SDS011;37799;52.390;6.136;2024-03-07T08:26:04;15.52;;;6.88;;
37201;SDS011;37799;52.390;6.136;2024-03-07T08:28:30;14.68;;;6.57;;
37201;SDS011;37799;52.390;6.136;2024-03-07T08:30:56;15.00;;;7.22;;
37201;SDS011;37799;52.390;6.136;2024-03-07T08:33:21;15.20;;;6.75;;
37201;SDS011;37799;52.390;6.136;2024-03-07T08:35:47;13.85;;;6.47;;
37201;SDS011;37799;52.390;6.136;2024-03-07T08:38:13;14.35;;;6.18;;
37201;SDS011;37799;52.390;6.136;2024-03-07T08:40:38;17.10;;;6.50;;
37201;SDS011;37799;52.390;6.136;2024-03-07T08:43:04;15.40;;;6.70;;
37201;SDS011;37799;52.390;6.136;2024-03-07T08:45:32;15.13;;;6.13;;
37201;SDS011;37799;52.390;6.136;2024-03-07T08:48:00;13.98;;;6.28;;
37201;SDS011;37799;52.390;6.136;2024-03-07T08:50:26;16.75;;;6.68;;
37201;SDS011;37799;52.390;6.136;2024-03-07T08:52:52;15.60;;;6.88;;
37201;SDS011;37799;52.390;6.136;2024-03-07T08:55:19;12.32;;;5.53;;
37201;SDS011;37799;52.390;6.136;2024-03-07T08:57:45;14.35;;;6.47;;
37201;SDS011;37799;52.390;6.136;2024-03-07T09:00:13;12.57;;;5.50;;
37201;SDS011;37799;52.390;6.136;2024-03-07T09:02:47;13.98;;;6.03;;
37201;SDS011;37799;52.390;6.136;2024-03-07T09:05:15;15.00;;;6.68;;
37201;SDS011;37799;52.390;6.136;2024-03-07T09:07:41;13.18;;;5.80;;
37201;SDS011;37799;52.390;6.136;2024-03-07T09:10:06;13.32;;;5.90;;
37201;SDS011;37799;52.390;6.136;2024-03-07T09:12:32;16.42;;;5.93;;
37201;SDS011;37799;52.390;6.136;2024-03-07T09:14:57;15.88;;;7.75;;
37201;SDS011;37799;52.390;6.136;2024-03-07T09:17:23;13.13;;;5.80;;
37201;SDS011;37799;52.390;6.136;2024-03-07T09:19:48;14.98;;;6.68;;
37201;SDS011;37799;52.390;6.136;2024-03-07T09:22:13;14.52;;;6.30;;
37201;SDS011;37799;52.390;6.136;2024-03-07T09:24:39;14.73;;;6.57;;
37201;SDS011;37799;52.390;6.136;2024-03-07T09:27:04;15.27;;;6.95;;
37201;SDS011;37799;52.390;6.136;2024-03-07T09:29:30;14.60;;;6.72;;
37201;SDS011;37799;52.390;6.136;2024-03-07T09:31:55;14.52;;;6.53;;
37201;SDS011;37799;52.390;6.136;2024-03-07T09:34:22;13.23;;;6.65;;
37201;SDS011;37799;52.390;6.136;2024-03-07T09:36:48;15.60;;;6.00;;
37201;SDS011;37799;52.390;6.136;2024-03-07T09:39:14;14.63;;;7.05;;
37201;SDS011;37799;52.390;6.136;2024-03-07T09:41:40;15.48;;;7.13;;
37201;SDS011;37799;52.390;6.136;2024-03-07T09:44:05;12.52;;;5.55;;
37201;SDS011;37799;52.390;6.136;2024-03-07T09:46:38;17.58;;;6.60;;
37201;SDS011;37799;52.390;6.136;2024-03-07T09:49:03;14.98;;;7.15;;
37201;SDS011;37799;52.390;6.136;2024-03-07T09:51:30;15.75;;;7.20;;
37201;SDS011;37799;52.390;6.136;2024-03-07T09:53:56;15.23;;;6.88;;
37201;SDS011;37799;52.390;6.136;2024-03-07T09:56:23;14.63;;;6.53;;
37201;SDS011;37799;52.390;6.136;2024-03-07T09:58:50;14.55;;;6.97;;
37201;SDS011;37799;52.390;6.136;2024-03-07T10:01:22;16.23;;;6.65;;
37201;SDS011;37799;52.390;6.136;2024-03-07T10:03:57;15.95;;;6.50;;
37201;SDS011;37799;52.390;6.136;2024-03-07T10:06:28;18.67;;;7.35;;
37201;SDS011;37799;52.390;6.136;2024-03-07T10:08:54;15.93;;;6.90;;
37201;SDS011;37799;52.390;6.136;2024-03-07T10:11:20;15.65;;;6.65;;
37201;SDS011;37799;52.390;6.136;2024-03-07T10:13:46;19.08;;;7.18;;
37201;SDS011;37799;52.390;6.136;2024-03-07T10:16:15;15.18;;;7.15;;
37201;SDS011;37799;52.390;6.136;2024-03-07T10:18:41;19.63;;;7.22;;
37201;SDS011;37799;52.390;6.136;2024-03-07T10:21:07;14.32;;;6.55;;
37201;SDS011;37799;52.390;6.136;2024-03-07T10:23:32;16.17;;;7.53;;
37201;SDS011;37799;52.390;6.136;2024-03-07T10:26:00;18.00;;;7.93;;
37201;SDS011;37799;52.390;6.136;2024-03-07T10:28:26;18.02;;;7.55;;
37201;SDS011;37799;52.390;6.136;2024-03-07T10:30:53;16.52;;;7.22;;
37201;SDS011;37799;52.390;6.136;2024-03-07T10:33:18;16.98;;;8.27;;
37201;SDS011;37799;52.390;6.136;2024-03-07T10:35:47;16.55;;;7.43;;
37201;SDS011;37799;52.390;6.136;2024-03-07T10:38:14;16.17;;;7.60;;
37201;SDS011;37799;52.390;6.136;2024-03-07T10:40:40;19.75;;;8.48;;
37201;SDS011;37799;52.390;6.136;2024-03-07T10:43:11;18.35;;;8.45;;
37201;SDS011;37799;52.390;6.136;2024-03-07T10:45:46;17.70;;;7.78;;
37201;SDS011;37799;52.390;6.136;2024-03-07T10:48:13;21.23;;;8.88;;
37201;SDS011;37799;52.390;6.136;2024-03-07T10:50:49;21.38;;;9.35;;
37201;SDS011;37799;52.390;6.136;2024-03-07T10:59:01;19.73;;;8.82;;
37201;SDS011;37799;52.390;6.136;2024-03-07T11:01:38;22.92;;;8.90;;
37201;SDS011;37799;52.390;6.136;2024-03-07T11:04:09;18.88;;;8.13;;
37201;SDS011;37799;52.390;6.136;2024-03-07T11:06:38;19.30;;;8.68;;
37201;SDS011;37799;52.390;6.136;2024-03-07T11:09:03;19.55;;;8.80;;
37201;SDS011;37799;52.390;6.136;2024-03-07T11:11:36;21.70;;;9.52;;
37201;SDS011;37799;52.390;6.136;2024-03-07T11:14:03;19.48;;;9.07;;
37201;SDS011;37799;52.390;6.136;2024-03-07T11:16:29;18.30;;;8.20;;
37201;SDS011;37799;52.390;6.136;2024-03-07T11:21:43;18.80;;;8.82;;
37201;SDS011;37799;52.390;6.136;2024-03-07T11:24:08;18.70;;;8.60;;
37201;SDS011;37799;52.390;6.136;2024-03-07T11:26:34;18.27;;;7.85;;
37201;SDS011;37799;52.390;6.136;2024-03-07T11:28:59;19.92;;;8.77;;
37201;SDS011;37799;52.390;6.136;2024-03-07T11:31:26;21.88;;;8.40;;
37201;SDS011;37799;52.390;6.136;2024-03-07T11:36:43;17.67;;;7.93;;
37201;SDS011;37799;52.390;6.136;2024-03-07T11:42:25;19.48;;;8.23;;
37201;SDS011;37799;52.390;6.136;2024-03-07T11:44:52;19.58;;;7.70;;
37201;SDS011;37799;52.390;6.136;2024-03-07T11:47:21;20.00;;;8.80;;
37201;SDS011;37799;52.390;6.136;2024-03-07T11:49:48;19.58;;;8.98;;
37201;SDS011;37799;52.390;6.136;2024-03-07T11:52:14;18.38;;;7.80;;
37201;SDS011;37799;52.390;6.136;2024-03-07T11:54:41;18.58;;;8.65;;
37201;SDS011;37799;52.390;6.136;2024-03-07T11:57:11;18.63;;;7.93;;
37201;SDS011;37799;52.390;6.136;2024-03-07T11:59:44;17.33;;;7.70;;
37201;SDS011;37799;52.390;6.136;2024-03-07T12:02:17;17.75;;;8.10;;
37201;SDS011;37799;52.390;6.136;2024-03-07T12:04:46;16.80;;;7.63;;
37201;SDS011;37799;52.390;6.136;2024-03-07T12:07:11;17.95;;;8.18;;
37201;SDS011;37799;52.390;6.136;2024-03-07T12:09:37;21.35;;;7.88;;
37201;SDS011;37799;52.390;6.136;2024-03-07T12:12:04;20.23;;;8.43;;
37201;SDS011;37799;52.390;6.136;2024-03-07T12:14:34;19.88;;;8.38;;
37201;SDS011;37799;52.390;6.136;2024-03-07T12:17:02;17.95;;;8.30;;
37201;SDS011;37799;52.390;6.136;2024-03-07T12:19:29;17.50;;;8.23;;
37201;SDS011;37799;52.390;6.136;2024-03-07T12:21:59;20.33;;;8.57;;
37201;SDS011;37799;52.390;6.136;2024-03-07T12:24:25;17.73;;;7.78;;
37201;SDS011;37799;52.390;6.136;2024-03-07T12:26:51;16.55;;;7.25;;
37201;SDS011;37799;52.390;6.136;2024-03-07T12:29:16;17.27;;;7.75;;
37201;SDS011;37799;52.390;6.136;2024-03-07T12:31:41;20.17;;;8.23;;
37201;SDS011;37799;52.390;6.136;2024-03-07T12:34:10;17.60;;;8.35;;
37201;SDS011;37799;52.390;6.136;2024-03-07T12:36:35;16.45;;;7.53;;
37201;SDS011;37799;52.390;6.136;2024-03-07T12:39:25;16.27;;;7.18;;
37201;SDS011;37799;52.390;6.136;2024-03-07T12:41:51;16.40;;;7.38;;
37201;SDS011;37799;52.390;6.136;2024-03-07T12:44:20;16.95;;;7.85;;
37201;SDS011;37799;52.390;6.136;2024-03-07T12:46:46;15.25;;;6.75;;
37201;SDS011;37799;52.390;6.136;2024-03-07T12:49:24;17.27;;;7.45;;
37201;SDS011;37799;52.390;6.136;2024-03-07T12:51:55;14.98;;;5.82;;
37201;SDS011;37799;52.390;6.136;2024-03-07T12:54:21;16.70;;;7.68;;
37201;SDS011;37799;52.390;6.136;2024-03-07T12:56:47;14.85;;;7.22;;
37201;SDS011;37799;52.390;6.136;2024-03-07T12:59:15;15.10;;;6.97;;
37201;SDS011;37799;52.390;6.136;2024-03-07T13:01:41;15.45;;;7.70;;
37201;SDS011;37799;52.390;6.136;2024-03-07T13:04:10;14.88;;;6.60;;
37201;SDS011;37799;52.390;6.136;2024-03-07T13:06:36;16.10;;;7.20;;
37201;SDS011;37799;52.390;6.136;2024-03-07T13:09:01;14.30;;;6.30;;
37201;SDS011;37799;52.390;6.136;2024-03-07T13:11:28;16.25;;;7.30;;
37201;SDS011;37799;52.390;6.136;2024-03-07T13:13:56;15.30;;;6.78;;
37201;SDS011;37799;52.390;6.136;2024-03-07T13:16:22;14.52;;;6.35;;
37201;SDS011;37799;52.390;6.136;2024-03-07T13:18:52;15.65;;;7.30;;
37201;SDS011;37799;52.390;6.136;2024-03-07T13:21:20;14.77;;;5.85;;
37201;SDS011;37799;52.390;6.136;2024-03-07T13:23:46;16.38;;;6.32;;
37201;SDS011;37799;52.390;6.136;2024-03-07T13:26:11;14.60;;;6.55;;
37201;SDS011;37799;52.390;6.136;2024-03-07T13:28:42;14.18;;;6.40;;
37201;SDS011;37799;52.390;6.136;2024-03-07T13:31:09;14.52;;;6.13;;
37201;SDS011;37799;52.390;6.136;2024-03-07T13:33:37;13.40;;;6.18;;
37201;SDS011;37799;52.390;6.136;2024-03-07T13:36:03;13.77;;;6.00;;
37201;SDS011;37799;52.390;6.136;2024-03-07T13:38:29;11.63;;;5.65;;
37201;SDS011;37799;52.390;6.136;2024-03-07T13:40:55;16.05;;;7.40;;
37201;SDS011;37799;52.390;6.136;2024-03-07T13:43:22;15.20;;;6.55;;
37201;SDS011;37799;52.390;6.136;2024-03-07T13:45:47;15.07;;;7.00;;
37201;SDS011;37799;52.390;6.136;2024-03-07T13:48:14;15.35;;;7.20;;
37201;SDS011;37799;52.390;6.136;2024-03-07T13:50:41;15.48;;;6.57;;
37201;SDS011;37799;52.390;6.136;2024-03-07T13:53:11;14.15;;;6.15;;
37201;SDS011;37799;52.390;6.136;2024-03-07T14:04:16;15.25;;;6.30;;
37201;SDS011;37799;52.390;6.136;2024-03-07T14:07:22;15.75;;;7.10;;
37201;SDS011;37799;52.390;6.136;2024-03-07T14:13:03;14.15;;;6.38;;
37201;SDS011;37799;52.390;6.136;2024-03-07T14:15:54;15.13;;;6.32;;
37201;SDS011;37799;52.390;6.136;2024-03-07T14:32:49;14.90;;;5.63;;
37201;SDS011;37799;52.390;6.136;2024-03-07T14:38:22;16.33;;;6.47;;
37201;SDS011;37799;52.390;6.136;2024-03-07T14:40:50;16.13;;;7.07;;
37201;SDS011;37799;52.390;6.136;2024-03-07T14:43:17;17.00;;;6.65;;
37201;SDS011;37799;52.390;6.136;2024-03-07T14:45:44;16.05;;;6.85;;
37201;SDS011;37799;52.390;6.136;2024-03-07T14:48:10;17.13;;;7.45;;
37201;SDS011;37799;52.390;6.136;2024-03-07T14:50:40;17.90;;;7.30;;
37201;SDS011;37799;52.390;6.136;2024-03-07T14:53:07;16.10;;;6.13;;
37201;SDS011;37799;52.390;6.136;2024-03-07T14:55:33;18.30;;;7.78;;
37201;SDS011;37799;52.390;6.136;2024-03-07T14:58:00;18.95;;;7.47;;
37201;SDS011;37799;52.390;6.136;2024-03-07T15:00:26;18.60;;;7.10;;
37201;SDS011;37799;52.390;6.136;2024-03-07T15:02:52;17.02;;;6.53;;
37201;SDS011;37799;52.390;6.136;2024-03-07T15:05:22;17.98;;;6.82;;
37201;SDS011;37799;52.390;6.136;2024-03-07T15:07:49;18.33;;;7.78;;
37201;SDS011;37799;52.390;6.136;2024-03-07T15:10:19;15.75;;;6.03;;